createdAt,value
2019-01-09T00:00:46.534Z,99087.09
2019-01-09T00:03:17.320Z,99091.03
2019-01-09T00:05:48.156Z,99091.61
2019-01-09T00:08:19.032Z,99090.30
2019-01-09T00:10:49.759Z,99085.82
2019-01-09T00:13:20.572Z,99098.55
2019-01-09T00:15:51.288Z,99092.49
2019-01-09T00:18:22.174Z,99092.98
2019-01-09T00:20:53.012Z,99097.02
2019-01-09T00:23:23.840Z,99095.31
2019-01-09T00:25:54.594Z,99098.37
2019-01-09T00:28:25.357Z,99094.44
2019-01-09T00:30:56.112Z,99096.70
2019-01-09T00:33:26.902Z,99091.41
2019-01-09T00:35:57.662Z,99102.34
2019-01-09T00:38:28.494Z,99096.36
2019-01-09T00:40:59.275Z,99100.22
2019-01-09T00:43:30.115Z,99108.13
2019-01-09T00:46:00.987Z,99103.00
2019-01-09T00:48:31.786Z,99106.48
2019-01-09T00:51:02.546Z,99106.05
2019-01-09T00:53:33.450Z,99110.42
2019-01-09T00:56:04.519Z,99111.29
2019-01-09T00:58:35.351Z,99110.52
2019-01-09T01:01:06.107Z,99111.72
2019-01-09T01:04:49.704Z,99112.62
2019-01-09T01:08:18.667Z,99117.02
2019-01-09T01:11:37.250Z,99109.25
2019-01-09T01:14:54.474Z,99112.78
2019-01-09T01:18:17.735Z,99114.08
2019-01-09T01:21:06.563Z,99121.93
2019-01-09T01:24:50.323Z,99108.09
2019-01-09T01:28:38.899Z,99116.78
2019-01-09T01:32:02.105Z,99120.27
2019-01-09T01:35:16.330Z,99128.13
2019-01-09T01:38:57.463Z,99126.44
2019-01-09T01:42:22.151Z,99137.75
2019-01-09T01:45:25.717Z,99130.37
2019-01-09T01:49:04.072Z,99130.36
2019-01-09T01:52:36.182Z,99148.64
2019-01-09T01:56:03.300Z,99144.81
2019-01-09T01:59:21.965Z,99141.77
2019-01-09T02:02:34.876Z,99146.97
2019-01-09T02:05:34.590Z,99148.34
2019-01-09T02:08:49.303Z,99144.08
2019-01-09T02:12:19.855Z,99148.37
2019-01-09T02:15:56.263Z,99144.09
2019-01-09T02:18:40.455Z,99154.47
2019-01-09T02:22:34.958Z,99151.03
2019-01-09T02:25:58.363Z,99152.80
2019-01-09T02:29:16.122Z,99141.92
2019-01-09T02:32:33.588Z,99151.41
2019-01-09T02:35:04.649Z,99154.45
2019-01-09T02:37:35.443Z,99151.91
2019-01-09T02:40:06.531Z,99155.83
2019-01-09T02:42:37.324Z,99158.02
2019-01-09T02:45:08.353Z,99152.36
2019-01-09T02:47:39.134Z,99152.48
2019-01-09T02:50:10.787Z,99156.39
2019-01-09T02:52:41.513Z,99160.25
2019-01-09T02:55:12.338Z,99156.84
2019-01-09T02:57:43.105Z,99159.46
2019-01-09T03:00:14.756Z,99154.23
2019-01-09T03:02:45.585Z,99154.29
2019-01-09T03:05:16.311Z,99154.31
2019-01-09T03:07:47.159Z,99161.73
2019-01-09T03:10:17.905Z,99161.73
2019-01-09T03:12:48.656Z,99159.95
2019-01-09T03:15:19.385Z,99156.54
2019-01-09T03:17:50.159Z,99161.32
2019-01-09T03:20:20.867Z,99156.47
2019-01-09T03:22:51.665Z,99156.05
2019-01-09T03:25:22.491Z,99161.73
2019-01-09T03:27:53.261Z,99164.80
2019-01-09T03:30:24.078Z,99155.23
2019-01-09T03:32:54.966Z,99163.06
2019-01-09T03:35:25.727Z,99163.05
2019-01-09T03:37:56.583Z,99163.92
2019-01-09T03:40:27.362Z,99164.36
2019-01-09T03:42:58.159Z,99162.63
2019-01-09T03:45:28.938Z,99166.09
2019-01-09T03:47:59.720Z,99170.44
2019-01-09T03:50:30.554Z,99164.34
2019-01-09T03:53:01.343Z,99163.06
2019-01-09T03:55:32.138Z,99171.30
2019-01-09T03:58:02.966Z,99180.00
2019-01-09T04:00:33.824Z,99170.49
2019-01-09T04:03:04.529Z,99180.00
2019-01-09T04:05:35.366Z,99171.30
2019-01-09T04:08:06.130Z,99185.64
2019-01-09T04:10:36.940Z,99189.98
2019-01-09T04:13:07.866Z,99187.81
2019-01-09T04:15:38.798Z,99187.77
2019-01-09T04:18:09.670Z,99189.06
2019-01-09T04:20:40.479Z,99189.50
2019-01-09T04:23:11.250Z,99189.48
2019-01-09T04:25:42.086Z,99189.01
2019-01-09T04:28:12.854Z,99192.08
2019-01-09T04:30:43.706Z,99195.52
2019-01-09T04:33:14.460Z,99203.72
2019-01-09T04:35:45.249Z,99204.19
2019-01-09T04:38:16.015Z,99200.71
2019-01-09T04:40:47.742Z,99210.66
2019-01-09T04:43:18.676Z,99200.23
2019-01-09T04:45:49.501Z,99206.30
2019-01-09T04:48:20.266Z,99210.23
2019-01-09T04:50:58.678Z,99202.39
2019-01-09T04:53:29.455Z,99201.59
2019-01-09T04:56:00.372Z,99207.18
2019-01-09T04:58:31.099Z,99205.02
2019-01-09T05:01:01.964Z,99207.16
2019-01-09T05:03:37.337Z,99208.84
2019-01-09T05:06:08.223Z,99221.45
2019-01-09T05:08:39.119Z,99220.09
2019-01-09T05:11:10.292Z,99218.40
2019-01-09T05:13:42.177Z,99221.41
2019-01-09T05:16:15.921Z,99226.17
2019-01-09T05:18:46.761Z,99223.56
2019-01-09T05:21:17.664Z,99226.59
2019-01-09T05:23:48.467Z,99226.59
2019-01-09T05:26:19.275Z,99226.55
2019-01-09T05:28:50.116Z,99230.45
2019-01-09T05:31:20.901Z,99220.01
2019-01-09T05:33:51.733Z,99230.87
2019-01-09T05:36:22.596Z,99234.73
2019-01-09T05:38:53.378Z,99242.55
2019-01-09T05:41:24.174Z,99234.30
2019-01-09T05:43:54.960Z,99233.88
2019-01-09T05:46:25.758Z,99230.36
2019-01-09T05:48:56.528Z,99237.77
2019-01-09T05:51:27.372Z,99234.66
2019-01-09T05:53:58.321Z,99233.84
2019-01-09T05:56:29.899Z,99245.97
2019-01-09T05:59:00.942Z,99240.73
2019-01-09T06:01:31.830Z,99241.18
2019-01-09T06:04:02.633Z,99240.30
2019-01-09T06:06:36.381Z,99247.25
2019-01-09T06:09:08.244Z,99242.48
2019-01-09T06:11:39.064Z,99245.09
2019-01-09T06:14:09.837Z,99242.41
2019-01-09T06:16:40.687Z,99244.22
2019-01-09T06:19:11.458Z,99249.87
2019-01-09T06:21:42.281Z,99256.33
2019-01-09T06:24:13.060Z,99248.51
2019-01-09T06:26:43.808Z,99255.02
2019-01-09T06:29:14.680Z,99250.30
2019-01-09T06:31:45.505Z,99255.88
2019-01-09T06:34:16.362Z,99264.16
2019-01-09T06:36:47.117Z,99257.63
2019-01-09T06:39:17.966Z,99266.83
2019-01-09T06:41:48.796Z,99263.30
2019-01-09T06:44:19.996Z,99266.81
2019-01-09T06:46:50.823Z,99268.13
2019-01-09T06:49:21.673Z,99275.46
2019-01-09T06:51:52.454Z,99281.19
2019-01-09T06:54:23.208Z,99277.26
2019-01-09T06:56:53.974Z,99281.17
2019-01-09T06:59:24.804Z,99285.97
2019-01-09T07:01:55.565Z,99286.02
2019-01-09T07:04:26.313Z,99286.84
2019-01-09T07:06:57.187Z,99289.49
2019-01-09T07:09:27.952Z,99289.95
2019-01-09T07:11:58.723Z,99294.36
2019-01-09T07:14:29.526Z,99292.63
2019-01-09T07:17:00.249Z,99295.23
2019-01-09T07:19:31.082Z,99300.94
2019-01-09T07:22:01.877Z,99299.20
2019-01-09T07:24:32.731Z,99298.77
2019-01-09T07:27:06.557Z,99304.86
2019-01-09T07:29:37.584Z,99314.45
2019-01-09T07:32:08.396Z,99312.28
2019-01-09T07:34:39.286Z,99316.20
2019-01-09T07:37:10.055Z,99315.33
2019-01-09T07:39:40.820Z,99323.63
2019-01-09T07:42:11.657Z,99330.16
2019-01-09T07:44:42.496Z,99327.59
2019-01-09T07:47:13.260Z,99337.59
2019-01-09T07:49:44.140Z,99336.28
2019-01-09T07:52:15.168Z,99342.81
2019-01-09T07:54:45.916Z,99341.06
2019-01-09T07:57:16.688Z,99348.45
2019-01-09T07:59:47.596Z,99349.80
2019-01-09T08:02:18.443Z,99348.45
2019-01-09T08:04:49.284Z,99354.53
2019-01-09T08:07:20.058Z,99358.88
2019-01-09T08:09:50.832Z,99362.36
2019-01-09T08:12:21.666Z,99362.36
2019-01-09T08:14:52.393Z,99361.05
2019-01-09T08:17:23.191Z,99366.70
2019-01-09T08:19:54.064Z,99365.39
2019-01-09T08:22:24.828Z,99371.01
2019-01-09T08:24:55.652Z,99378.43
2019-01-09T08:27:26.472Z,99382.78
2019-01-09T08:29:57.312Z,99386.69
2019-01-09T08:32:28.238Z,99394.04
2019-01-09T08:34:59.170Z,99395.38
2019-01-09T08:37:29.932Z,99399.29
2019-01-09T08:40:00.802Z,99401.03
2019-01-09T08:42:32.017Z,99406.24
2019-01-09T08:45:03.103Z,99409.28
2019-01-09T08:47:33.890Z,99414.93
2019-01-09T08:50:04.956Z,99415.37
2019-01-09T08:52:35.738Z,99417.54
2019-01-09T08:55:07.803Z,99429.27
2019-01-09T08:57:38.605Z,99423.19
2019-01-09T09:00:11.799Z,99430.58
2019-01-09T09:02:42.631Z,99431.48
2019-01-09T09:05:13.416Z,99434.95
2019-01-09T09:07:44.779Z,99442.30
2019-01-09T09:10:15.648Z,99447.98
2019-01-09T09:12:46.517Z,99447.98
2019-01-09T09:15:17.699Z,99448.42
2019-01-09T09:17:48.511Z,99457.08
2019-01-09T09:20:19.378Z,99459.25
2019-01-09T09:22:50.213Z,99463.16
2019-01-09T09:25:21.058Z,99459.69
2019-01-09T09:27:51.823Z,99467.05
2019-01-09T09:30:22.748Z,99471.39
2019-01-09T09:32:53.511Z,99474.84
2019-01-09T09:35:24.387Z,99476.14
2019-01-09T09:37:55.245Z,99476.58
2019-01-09T09:40:26.348Z,99485.70
2019-01-09T09:42:57.195Z,99478.28
2019-01-09T09:45:27.973Z,99479.16
2019-01-09T09:47:58.852Z,99484.38
2019-01-09T09:50:29.683Z,99485.24
2019-01-09T09:53:00.512Z,99485.64
2019-01-09T09:55:31.277Z,99490.46
2019-01-09T09:58:05.889Z,99490.83
2019-01-09T10:00:34.714Z,99501.27
2019-01-09T10:03:05.648Z,99498.22
2019-01-09T10:05:36.446Z,99496.91
2019-01-09T10:08:10.119Z,99499.95
2019-01-09T10:10:40.918Z,99506.44
2019-01-09T10:13:11.675Z,99515.06
2019-01-09T10:15:42.453Z,99509.92
2019-01-09T10:18:13.248Z,99514.63
2019-01-09T10:20:44.075Z,99517.23
2019-01-09T10:23:16.927Z,99520.72
2019-01-09T10:25:47.784Z,99515.45
2019-01-09T10:28:20.015Z,99518.94
2019-01-09T10:30:52.635Z,99524.16
2019-01-09T10:33:23.496Z,99523.72
2019-01-09T10:35:56.871Z,99521.98
2019-01-09T10:38:27.662Z,99532.42
2019-01-09T10:40:58.473Z,99534.16
2019-01-09T10:43:29.247Z,99542.00
2019-01-09T10:46:00.125Z,99547.21
2019-01-09T10:48:32.477Z,99539.38
2019-01-09T10:51:06.803Z,99536.73
2019-01-09T10:53:37.644Z,99542.83
2019-01-09T10:56:09.326Z,99545.39
2019-01-09T10:58:42.146Z,99546.69
2019-01-09T11:01:15.267Z,99546.27
2019-01-09T11:03:46.202Z,99547.52
2019-01-09T11:06:20.486Z,99548.81
2019-01-09T11:08:51.255Z,99553.61
2019-01-09T11:11:22.106Z,99560.23
2019-01-09T11:13:52.959Z,99553.22
2019-01-09T11:16:23.745Z,99561.01
2019-01-09T11:18:54.692Z,99562.70
2019-01-09T11:21:25.663Z,99558.45
2019-01-09T11:23:56.412Z,99556.64
2019-01-09T11:26:27.250Z,99560.53
2019-01-09T11:28:59.826Z,99557.03
2019-01-09T11:31:30.684Z,99560.09
2019-01-09T11:34:01.522Z,99563.95
2019-01-09T11:36:32.469Z,99562.64
2019-01-09T11:39:03.462Z,99566.95
2019-01-09T11:41:38.557Z,99568.69
2019-01-09T11:44:11.700Z,99569.92
2019-01-09T11:46:43.776Z,99564.65
2019-01-09T11:49:15.780Z,99561.98
2019-01-09T11:51:49.058Z,99558.06
2019-01-09T11:54:22.454Z,99563.27
2019-01-09T11:56:55.982Z,99570.69
2019-01-09T11:59:26.914Z,99561.97
2019-01-09T12:02:02.059Z,99565.02
2019-01-09T12:04:33.040Z,99566.33
2019-01-09T12:07:04.098Z,99568.13
2019-01-09T12:09:34.890Z,99571.56
2019-01-09T12:12:08.552Z,99566.77
2019-01-09T12:14:39.354Z,99579.83
2019-01-09T12:17:10.214Z,99578.52
2019-01-09T12:19:41.070Z,99585.92
2019-01-09T12:22:20.963Z,99595.09
2019-01-09T12:24:54.057Z,99594.70
2019-01-09T12:27:27.214Z,99590.34
2019-01-09T12:30:03.233Z,99600.74
2019-01-09T12:32:33.992Z,99606.36
2019-01-09T12:35:09.032Z,99616.55
2019-01-09T12:37:40.215Z,99614.63
2019-01-09T12:40:16.902Z,99616.86
2019-01-09T12:42:54.094Z,99624.21
2019-01-09T12:45:28.422Z,99619.98
2019-01-09T12:48:02.222Z,99631.62
2019-01-09T12:50:35.418Z,99630.27
2019-01-09T12:53:07.731Z,99650.34
2019-01-09T12:55:42.622Z,99643.77
2019-01-09T12:58:15.524Z,99644.27
2019-01-09T13:00:46.396Z,99643.49
2019-01-09T13:03:19.318Z,99646.33
2019-01-09T13:05:53.060Z,99656.34
2019-01-09T13:08:23.910Z,99653.73
2019-01-09T13:10:54.686Z,99656.33
2019-01-09T13:13:25.566Z,99673.28
2019-01-09T13:15:56.356Z,99674.14
2019-01-09T13:18:29.194Z,99678.95
2019-01-09T13:21:01.284Z,99674.65
2019-01-09T13:23:35.307Z,99677.62
2019-01-09T13:26:06.233Z,99681.50
2019-01-09T13:28:36.974Z,99691.02
2019-01-09T13:31:07.766Z,99683.10
2019-01-09T13:33:38.538Z,99694.45
2019-01-09T13:36:09.770Z,99697.05
2019-01-09T13:38:40.566Z,99711.89
2019-01-09T13:41:11.386Z,99701.17
2019-01-09T13:43:42.182Z,99715.61
2019-01-09T13:46:12.993Z,99705.05
2019-01-09T13:48:43.856Z,99718.66
2019-01-09T13:51:14.704Z,99706.89
2019-01-09T13:53:45.473Z,99720.41
2019-01-09T13:56:16.252Z,99725.21
2019-01-09T13:58:47.145Z,99732.61
2019-01-09T14:01:17.923Z,99731.78
2019-01-09T14:03:48.756Z,99733.09
2019-01-09T14:06:19.538Z,99737.89
2019-01-09T14:08:50.407Z,99742.77
2019-01-09T14:11:21.165Z,99738.41
2019-01-09T14:13:51.973Z,99751.48
2019-01-09T14:16:22.790Z,99743.11
2019-01-09T14:18:55.298Z,99763.64
2019-01-09T14:21:26.202Z,99756.71
2019-01-09T14:23:57.010Z,99754.97
2019-01-09T14:26:27.850Z,99759.33
2019-01-09T14:28:58.665Z,99764.15
2019-01-09T14:31:29.502Z,99779.83
2019-01-09T14:34:00.489Z,99772.39
2019-01-09T14:36:31.322Z,99775.91
2019-01-09T14:39:02.073Z,99791.56
2019-01-09T14:41:32.893Z,99778.49
2019-01-09T14:44:03.667Z,99783.69
2019-01-09T14:46:34.455Z,99791.56
2019-01-09T14:49:05.247Z,99790.69
2019-01-09T14:51:43.140Z,99795.88
2019-01-09T14:54:08.536Z,99803.33
2019-01-09T14:56:39.340Z,99803.79
2019-01-09T14:59:10.121Z,99807.22
2019-01-09T15:01:40.954Z,99803.73
2019-01-09T15:04:11.854Z,99826.85
2019-01-09T15:06:42.717Z,99823.77
2019-01-09T15:09:13.476Z,99821.19
2019-01-09T15:11:44.782Z,99831.20
2019-01-09T15:14:15.573Z,99826.88
2019-01-09T15:16:46.636Z,99831.67
2019-01-09T15:19:17.552Z,99841.66
2019-01-09T15:21:48.395Z,99846.96
2019-01-09T15:25:21.832Z,99842.13
2019-01-09T15:27:54.941Z,99847.35
2019-01-09T15:30:32.816Z,99854.30
2019-01-09T15:33:03.904Z,99864.31
2019-01-09T15:35:34.827Z,99872.17
2019-01-09T15:38:06.128Z,99869.54
2019-01-09T15:40:37.263Z,99884.83
2019-01-09T15:43:08.521Z,99881.33
2019-01-09T15:45:39.473Z,99891.35
2019-01-09T15:48:14.807Z,99897.90
2019-01-09T15:50:47.006Z,99896.99
2019-01-09T15:53:20.990Z,99900.04
2019-01-09T15:55:54.733Z,99898.30
2019-01-09T15:58:35.704Z,99906.16
2019-01-09T16:01:21.578Z,99907.02
2019-01-09T16:03:59.931Z,99919.64
2019-01-09T16:39:14.016Z,99973.69
2019-01-09T16:41:45.580Z,99978.02
2019-01-09T16:44:16.765Z,99973.69
2019-01-09T16:46:47.932Z,99978.92
2019-01-09T16:49:27.649Z,99992.41
2019-01-09T16:51:52.308Z,99993.27
2019-01-09T16:54:23.501Z,100001.55
2019-01-09T16:56:54.344Z,100001.11
2019-01-09T16:59:25.220Z,100007.23
2019-01-09T17:01:56.038Z,100009.40
2019-01-09T17:04:28.528Z,100012.89
2019-01-09T17:06:59.487Z,100012.45
2019-01-09T17:09:30.806Z,100018.98
2019-01-09T17:12:02.510Z,100023.33
2019-01-09T17:14:33.412Z,100032.92
2019-01-09T17:17:04.260Z,100032.91
2019-01-09T17:19:35.095Z,100040.30
2019-01-09T17:22:06.197Z,100049.45
2019-01-09T17:24:37.118Z,100045.13
2019-01-09T17:27:08.256Z,100046.41
2019-01-09T17:29:39.288Z,100062.08
2019-01-09T17:32:10.151Z,100069.08
2019-01-09T17:34:40.993Z,100069.95
2019-01-09T17:37:12.185Z,100080.38
2019-01-09T17:39:43.264Z,100086.03
2019-01-09T17:42:14.429Z,100083.02
2019-01-09T17:44:59.104Z,100092.16
2019-01-09T17:47:32.844Z,100100.85
2019-01-09T17:50:03.993Z,100103.89
2019-01-09T17:52:35.634Z,100105.23
2019-01-09T17:55:13.577Z,100102.61
2019-01-09T17:57:44.487Z,100111.77
2019-01-09T18:00:23.115Z,100115.23
2019-01-09T18:02:54.029Z,100126.57
2019-01-09T18:05:25.741Z,100126.55
2019-01-09T18:07:57.156Z,100132.25
2019-01-09T18:10:28.917Z,100133.06
2019-01-09T18:13:00.777Z,100148.81
2019-01-09T18:15:31.755Z,100144.01
2019-01-09T18:18:02.791Z,100149.20
2019-01-09T18:20:33.625Z,100161.84
2019-01-09T18:23:04.759Z,100163.13
2019-01-09T18:25:35.657Z,100167.97
2019-01-09T18:28:06.623Z,100167.94
2019-01-09T18:31:26.479Z,100180.92
2019-01-09T18:34:43.999Z,100183.11
2019-01-09T18:38:22.526Z,100191.40
2019-01-09T18:41:30.901Z,100185.79
2019-01-09T18:44:56.146Z,100203.61
2019-01-09T19:04:27.179Z,100240.16
2019-01-09T19:06:34.960Z,100256.31
2019-01-09T19:09:18.195Z,100260.66
2019-01-09T19:11:50.589Z,100263.74
2019-01-09T19:14:21.747Z,100265.88
2019-01-09T19:16:52.744Z,100274.55
2019-01-09T19:19:23.746Z,100277.61
2019-01-09T19:21:54.803Z,100276.78
2019-01-09T19:24:25.730Z,100285.11
2019-01-09T19:26:56.735Z,100289.06
2019-01-09T19:29:27.721Z,100293.46
2019-01-09T19:31:58.659Z,100299.52
2019-01-09T19:34:29.645Z,100309.02
2019-01-09T19:37:03.873Z,100304.75
2019-01-09T19:39:34.809Z,100312.63
2019-01-09T19:42:05.809Z,100319.17
2019-01-09T19:44:36.831Z,100325.26
2019-01-09T19:47:16.811Z,100331.47
2019-01-09T19:49:47.961Z,100330.61
2019-01-09T19:52:18.922Z,100344.05
2019-01-09T19:54:50.286Z,100347.83
2019-01-09T19:57:21.620Z,100350.93
2019-01-09T19:59:52.603Z,100354.31
2019-01-09T20:02:23.467Z,100359.94
2019-01-09T20:04:54.579Z,100367.40
2019-01-09T20:07:25.793Z,100370.83
2019-01-09T20:09:56.796Z,100376.03
2019-01-09T20:12:38.063Z,100384.28
2019-01-09T20:15:11.955Z,100383.86
2019-01-09T20:17:45.766Z,100388.20
2019-01-09T20:20:22.207Z,100396.47
2019-01-09T20:22:59.904Z,100398.22
2019-01-09T20:25:31.163Z,100403.88
2019-01-09T20:28:05.859Z,100395.65
2019-01-09T20:30:38.451Z,100406.06
2019-01-09T20:33:09.380Z,100407.41
2019-01-09T20:35:40.392Z,100406.99
2019-01-09T20:38:11.408Z,100411.36
2019-01-09T20:40:42.286Z,100417.89
2019-01-09T20:43:13.280Z,100420.56
2019-01-09T20:45:47.311Z,100427.54
2019-01-09T20:48:18.432Z,100424.18
2019-01-09T20:50:49.513Z,100427.27
2019-01-09T20:53:20.547Z,100425.95
2019-01-09T20:55:51.656Z,100435.17
2019-01-09T20:58:22.696Z,100445.16
2019-01-09T21:04:05.625Z,100448.97
2019-01-09T21:06:12.747Z,100461.57
2019-01-09T21:09:09.831Z,100470.16
2019-01-09T21:11:24.298Z,100467.58
2019-01-09T21:13:57.345Z,100468.17
2019-01-09T21:16:31.674Z,100478.48
2019-01-09T21:19:09.645Z,100484.98
2019-01-09T21:22:11.142Z,100479.73
2019-01-09T21:27:45.803Z,100486.70
2019-01-09T21:30:13.506Z,100489.75
2019-01-09T21:32:37.901Z,100502.83
2019-01-09T21:35:11.033Z,100502.44
2019-01-09T21:37:44.802Z,100504.09
2019-01-09T21:40:29.568Z,100513.70
2019-01-09T21:43:07.652Z,100515.11
2019-01-09T21:45:40.414Z,100525.98
2019-01-09T21:48:13.033Z,100530.48
2019-01-09T21:50:56.068Z,100528.73
2019-01-09T21:53:18.382Z,100537.82
2019-01-09T21:55:49.205Z,100535.02
2019-01-09T21:58:20.223Z,100533.23
2019-01-09T22:00:51.079Z,100541.91
2019-01-09T22:03:22.026Z,100542.31
2019-01-09T22:05:52.920Z,100544.62
2019-01-09T22:08:23.834Z,100545.86
2019-01-09T22:10:54.735Z,100553.73
2019-01-09T22:13:25.642Z,100553.53
2019-01-09T22:15:56.464Z,100557.53
2019-01-09T22:18:27.326Z,100561.84
2019-01-09T22:20:58.210Z,100559.59
2019-01-09T22:23:29.081Z,100564.48
2019-01-09T22:25:59.922Z,100569.96
2019-01-09T22:28:30.733Z,100573.92
2019-01-09T22:31:01.558Z,100574.83
2019-01-09T22:33:32.384Z,100576.95
2019-01-09T22:36:03.192Z,100576.80
2019-01-09T22:38:33.945Z,100589.75
2019-01-09T22:41:04.885Z,100591.04
2019-01-09T22:43:35.703Z,100590.59
2019-01-09T22:46:06.592Z,100590.38
2019-01-09T22:48:37.389Z,100595.04
2019-01-09T22:51:08.223Z,100600.39
2019-01-09T22:53:39.171Z,100600.87
2019-01-09T22:56:10.041Z,100603.41
2019-01-09T22:58:40.845Z,100610.75
2019-01-09T23:01:24.928Z,100607.70
2019-01-09T23:03:57.269Z,100618.95
2019-01-09T23:06:28.086Z,100618.49
2019-01-09T23:09:02.007Z,100618.12
2019-01-09T23:11:32.843Z,100620.63
2019-01-09T23:14:03.725Z,100626.33
2019-01-09T23:16:34.633Z,100629.34
2019-01-09T23:19:05.656Z,100634.93
2019-01-09T23:21:36.637Z,100633.70
2019-01-09T23:24:07.505Z,100630.08
2019-01-09T23:26:38.380Z,100635.59
2019-01-09T23:29:09.209Z,100635.43
2019-01-09T23:31:40.157Z,100634.77
2019-01-09T23:34:10.948Z,100638.95
2019-01-09T23:36:41.739Z,100643.75
2019-01-09T23:39:12.901Z,100645.00
2019-01-09T23:41:43.749Z,100650.98
2019-01-09T23:44:14.582Z,100651.44
2019-01-09T23:46:45.433Z,100645.62
2019-01-09T23:49:16.253Z,100659.21
2019-01-09T23:51:47.130Z,100657.98
2019-01-09T23:54:18.145Z,100662.72
2019-01-09T23:56:48.991Z,100658.20
2019-01-09T23:59:19.849Z,100663.48
